Time;durP1;ratioP1;P1;durP2;ratioP2;P2;SDS_P1;SDS_P2;PMS_P1;PMS_P2;Temp;Humidity;BMP_temperature;BMP_pressure;BME280_temperature;BME280_humidity;BME280_pressure;Samples;Min_cycle;Max_cycle;Signal;HPM_P1;HPM_P2
2023/07/16 00:02:16;;;;;;;4.43;4.20;;;24.40;99.90;;;;;;5087473;28;20753;-51
2023/07/16 00:04:43;;;;;;;4.57;3.70;;;24.30;99.90;;;;;;5078172;28;20708;-52
2023/07/16 00:07:10;;;;;;;4.17;3.30;;;24.20;99.90;;;;;;5089341;28;20212;-52
2023/07/16 00:09:37;;;;;;;2.87;2.67;;;24.20;99.90;;;;;;5073580;28;20280;-52
2023/07/16 00:12:07;;;;;;;3.03;2.80;;;24.10;99.90;;;;;;5078063;28;20285;-52
2023/07/16 00:14:33;;;;;;;3.07;2.87;;;24.20;99.90;;;;;;5078068;28;20674;-52
2023/07/16 00:17:00;;;;;;;2.63;2.47;;;24.30;99.90;;;;;;5069761;28;20209;-52
2023/07/16 00:19:27;;;;;;;5.10;3.03;;;24.30;99.90;;;;;;5083007;28;20197;-52
2023/07/16 00:21:54;;;;;;;2.70;2.50;;;24.30;99.90;;;;;;5080552;28;20281;-52
2023/07/16 00:24:21;;;;;;;2.40;2.20;;;24.30;99.90;;;;;;5080739;28;20192;-52
2023/07/16 00:26:48;;;;;;;2.57;2.20;;;24.30;99.90;;;;;;5089805;28;20627;-52
2023/07/16 00:29:16;;;;;;;4.23;1.77;;;24.20;99.90;;;;;;5086587;28;20197;-52
2023/07/16 00:31:43;;;;;;;1.70;1.60;;;24.20;99.90;;;;;;5084854;28;20239;-52
2023/07/16 00:34:12;;;;;;;1.27;1.27;;;24.20;99.90;;;;;;5077414;28;20201;-52
2023/07/16 00:36:39;;;;;;;1.30;1.30;;;24.10;99.90;;;;;;5093913;28;20675;-52
2023/07/16 00:39:06;;;;;;;1.53;1.47;;;24.00;99.90;;;;;;5090861;28;20197;-52
2023/07/16 00:41:33;;;;;;;2.30;1.50;;;23.90;99.90;;;;;;5088449;28;20249;-52
2023/07/16 00:44:00;;;;;;;3.60;1.80;;;23.90;99.90;;;;;;5095306;28;20199;-51
2023/07/16 00:46:28;;;;;;;1.63;1.53;;;23.90;99.90;;;;;;5083352;28;20251;-52
2023/07/16 00:48:55;;;;;;;1.43;1.33;;;23.80;99.90;;;;;;5114162;28;20229;-52
2023/07/16 00:51:25;;;;;;;2.20;1.50;;;23.80;99.90;;;;;;5109480;28;20565;-52
2023/07/16 00:53:52;;;;;;;2.13;1.13;;;23.70;99.90;;;;;;5085327;28;20227;-52
2023/07/16 00:56:19;;;;;;;1.37;1.27;;;23.60;99.90;;;;;;5099441;28;20811;-52
2023/07/16 00:58:46;;;;;;;1.80;1.23;;;23.50;99.90;;;;;;5106639;28;20249;-52
2023/07/16 01:01:14;;;;;;;1.23;0.80;;;23.40;99.90;;;;;;5113308;28;20288;-52
2023/07/16 01:03:42;;;;;;;0.97;0.40;;;23.30;99.90;;;;;;5085832;28;20572;-52
2023/07/16 01:06:15;;;;;;;0.40;0.40;;;23.10;99.90;;;;;;5084759;28;20258;-51
2023/07/16 01:08:51;;;;;;;1.17;0.67;;;23.10;99.90;;;;;;5084458;28;20208;-54
2023/07/16 01:11:19;;;;;;;0.30;0.30;;;23.10;99.90;;;;;;5107729;28;20268;-52
2023/07/16 01:13:46;;;;;;;0.40;0.40;;;23.10;99.90;;;;;;5083496;28;20197;-52
2023/07/16 01:16:20;;;;;;;0.97;0.30;;;23.10;99.90;;;;;;5093015;28;20201;-52
2023/07/16 01:18:49;;;;;;;0.77;0.40;;;23.10;99.90;;;;;;5091655;28;20242;-52
2023/07/16 01:21:16;;;;;;;0.30;0.30;;;23.00;99.90;;;;;;5090904;28;20213;-52
2023/07/16 01:24:01;;;;;;;0.50;0.50;;;22.90;99.90;;;;;;5085724;28;20265;-52
2023/07/16 01:26:48;;;;;;;0.40;0.40;;;22.80;99.90;;;;;;5079081;28;20200;-51
2023/07/16 01:29:29;;;;;;;0.47;0.40;;;22.70;99.90;;;;;;5082136;28;20627;-51
2023/07/16 01:31:57;;;;;;;0.70;0.40;;;22.50;99.90;;;;;;5080431;28;20224;-52
2023/07/16 01:34:28;;;;;;;0.40;0.40;;;22.20;99.90;;;;;;5072091;28;20232;-52
2023/07/16 01:36:56;;;;;;;1.03;0.60;;;22.00;99.90;;;;;;5072247;28;20209;-52
2023/07/16 01:39:23;;;;;;;0.60;0.60;;;21.70;99.90;;;;;;5072543;28;20267;-53
2023/07/16 01:41:50;;;;;;;0.90;0.67;;;21.60;99.90;;;;;;5085166;28;20777;-52
2023/07/16 01:44:19;;;;;;;0.50;0.50;;;21.30;99.90;;;;;;5085229;28;20201;-52
2023/07/16 01:47:00;;;;;;;0.60;0.60;;;21.00;99.90;;;;;;5096436;28;20199;-52
2023/07/16 01:49:27;;;;;;;0.53;0.50;;;21.00;99.90;;;;;;5111932;28;20621;-51
2023/07/16 01:51:54;;;;;;;1.80;0.40;;;20.90;99.90;;;;;;5083263;28;20259;-52
2023/07/16 01:54:21;;;;;;;0.67;0.67;;;21.10;99.90;;;;;;5086029;28;20196;-52
2023/07/16 01:56:49;;;;;;;0.67;0.67;;;20.80;99.90;;;;;;5083058;28;20204;-52
2023/07/16 01:59:16;;;;;;;0.50;0.50;;;20.70;99.90;;;;;;5092344;28;20287;-52
2023/07/16 02:01:44;;;;;;;0.50;0.50;;;20.80;99.90;;;;;;5086248;28;20228;-52
2023/07/16 02:04:11;;;;;;;0.80;0.80;;;20.80;99.90;;;;;;5088887;28;20255;-52
2023/07/16 02:06:38;;;;;;;0.50;0.50;;;20.80;99.90;;;;;;5092106;28;20621;-52
2023/07/16 02:09:05;;;;;;;0.60;0.60;;;20.70;99.90;;;;;;5093094;28;20553;-52
2023/07/16 02:11:32;;;;;;;0.70;0.70;;;20.70;99.90;;;;;;5086174;28;20212;-51
2023/07/16 02:13:59;;;;;;;0.60;0.60;;;20.80;99.90;;;;;;5083607;28;20200;-52
2023/07/16 02:16:26;;;;;;;1.83;0.53;;;20.80;99.90;;;;;;5092005;28;20205;-51
2023/07/16 02:18:55;;;;;;;0.60;0.60;;;20.80;99.90;;;;;;5091950;28;20662;-52
2023/07/16 02:21:22;;;;;;;1.13;1.03;;;20.80;99.90;;;;;;5088900;28;20265;-52
2023/07/16 02:23:50;;;;;;;0.90;0.60;;;20.90;99.90;;;;;;5094351;28;20214;-52
2023/07/16 02:26:17;;;;;;;0.70;0.70;;;20.90;99.90;;;;;;5112105;28;20200;-52
2023/07/16 02:28:44;;;;;;;0.57;0.57;;;20.90;99.90;;;;;;5112088;28;20204;-51
2023/07/16 02:31:11;;;;;;;2.17;0.80;;;21.00;99.90;;;;;;5101756;28;20717;-51
2023/07/16 02:33:38;;;;;;;0.57;0.57;;;21.00;99.90;;;;;;5084838;28;20308;-51
2023/07/16 02:36:07;;;;;;;0.50;0.50;;;20.90;99.90;;;;;;5074598;28;20196;-52
2023/07/16 02:38:34;;;;;;;0.70;0.70;;;20.80;99.90;;;;;;5095125;28;20197;-51
2023/07/16 02:41:01;;;;;;;0.70;0.70;;;20.70;99.90;;;;;;5082874;28;20224;-51
2023/07/16 02:43:28;;;;;;;2.30;0.90;;;20.60;99.90;;;;;;5088273;28;20289;-51
2023/07/16 02:45:55;;;;;;;0.73;0.73;;;20.40;99.90;;;;;;5079694;28;20205;-52
2023/07/16 02:48:22;;;;;;;0.90;0.90;;;20.20;99.90;;;;;;5097681;28;20192;-52
2023/07/16 02:51:09;;;;;;;0.90;0.90;;;20.20;99.90;;;;;;5091507;28;20624;-52
2023/07/16 02:53:37;;;;;;;1.00;0.80;;;20.10;99.90;;;;;;5089206;28;20661;-52
2023/07/16 02:56:04;;;;;;;0.70;0.70;;;20.10;99.90;;;;;;5082378;28;20672;-52
2023/07/16 02:58:31;;;;;;;1.07;0.60;;;20.10;99.90;;;;;;5094996;28;20684;-52
2023/07/16 03:00:58;;;;;;;0.73;0.73;;;20.10;99.90;;;;;;5082480;28;20228;-51
2023/07/16 03:03:25;;;;;;;1.63;0.90;;;20.10;99.90;;;;;;5090366;28;20256;-51
2023/07/16 03:05:53;;;;;;;0.73;0.73;;;19.90;99.90;;;;;;5083556;28;20667;-52
2023/07/16 03:08:22;;;;;;;1.90;0.80;;;19.90;99.90;;;;;;5084556;28;20196;-52
2023/07/16 03:10:49;;;;;;;1.50;0.60;;;19.80;99.90;;;;;;5088513;28;20296;-52
2023/07/16 03:13:16;;;;;;;1.13;0.80;;;19.80;99.90;;;;;;5077429;28;20282;-51
2023/07/16 03:15:43;;;;;;;0.90;0.90;;;19.80;99.90;;;;;;5082414;28;20189;-51
2023/07/16 03:18:10;;;;;;;0.80;0.80;;;19.80;99.90;;;;;;5090699;28;20215;-51
2023/07/16 03:20:37;;;;;;;2.83;1.10;;;19.70;99.90;;;;;;5090753;28;20254;-51
2023/07/16 03:23:06;;;;;;;1.50;0.93;;;19.70;99.90;;;;;;5096991;28;20303;-52
2023/07/16 03:25:35;;;;;;;1.60;0.93;;;19.60;99.90;;;;;;5074459;28;20274;-52
2023/07/16 03:28:02;;;;;;;0.80;0.80;;;19.60;99.90;;;;;;5089879;28;20207;-51
2023/07/16 03:30:31;;;;;;;1.50;0.73;;;19.60;99.90;;;;;;5090810;28;20204;-52
2023/07/16 03:32:58;;;;;;;1.07;1.03;;;19.60;99.90;;;;;;5090211;28;20208;-52
2023/07/16 03:35:25;;;;;;;1.10;1.10;;;19.60;99.90;;;;;;5085338;28;20200;-52
2023/07/16 03:37:53;;;;;;;0.97;0.97;;;19.70;99.90;;;;;;5079994;28;20681;-52
2023/07/16 03:40:25;;;;;;;1.00;1.00;;;19.60;99.90;;;;;;5090651;28;20550;-52
2023/07/16 03:42:53;;;;;;;2.73;1.10;;;19.60;99.90;;;;;;5090075;28;20242;-51
2023/07/16 03:45:21;;;;;;;1.17;1.17;;;19.80;99.90;;;;;;5089453;28;20201;-52
2023/07/16 03:47:48;;;;;;;0.90;0.90;;;19.70;99.90;;;;;;5101074;28;20199;-52
2023/07/16 03:50:15;;;;;;;0.70;0.70;;;19.70;99.90;;;;;;5081900;28;20203;-52
2023/07/16 03:52:45;;;;;;;1.10;1.10;;;19.70;99.90;;;;;;5089985;28;20216;-52
2023/07/16 03:55:12;;;;;;;1.20;1.10;;;19.70;99.90;;;;;;5085743;28;20197;-51
2023/07/16 03:57:39;;;;;;;1.00;1.00;;;19.70;99.90;;;;;;5081256;28;20203;-52
2023/07/16 04:00:10;;;;;;;0.87;0.87;;;19.70;99.90;;;;;;5091165;28;20265;-52
2023/07/16 04:02:41;;;;;;;0.93;0.93;;;19.70;99.90;;;;;;5086412;28;20281;-52
2023/07/16 04:05:12;;;;;;;0.83;0.83;;;19.70;99.90;;;;;;5083204;28;20576;-52
2023/07/16 04:07:41;;;;;;;0.53;0.53;;;19.70;99.90;;;;;;5086010;28;20200;-52
2023/07/16 04:10:09;;;;;;;0.87;0.80;;;19.80;99.90;;;;;;5089921;28;20291;-52
2023/07/16 04:12:36;;;;;;;0.80;0.80;;;19.80;99.90;;;;;;5088260;28;20667;-52
2023/07/16 04:15:11;;;;;;;0.90;0.90;;;19.80;99.90;;;;;;5080975;28;20197;-51
2023/07/16 04:17:40;;;;;;;1.00;0.83;;;19.80;99.90;;;;;;5073902;28;20724;-52
2023/07/16 04:20:08;;;;;;;1.30;1.30;;;19.80;99.90;;;;;;5086233;28;20254;-51
2023/07/16 04:22:36;;;;;;;0.77;0.77;;;19.80;99.90;;;;;;5089627;28;20221;-52
2023/07/16 04:25:03;;;;;;;1.80;0.90;;;19.90;99.90;;;;;;5084799;28;20296;-52
2023/07/16 04:27:30;;;;;;;2.33;1.07;;;20.00;99.90;;;;;;5082105;28;20197;-52
2023/07/16 04:29:57;;;;;;;0.80;0.80;;;20.10;99.90;;;;;;5087010;28;20710;-52
2023/07/16 04:32:25;;;;;;;0.80;0.80;;;20.10;99.90;;;;;;5081651;22;20237;-55
2023/07/16 04:34:52;;;;;;;0.97;0.97;;;20.10;99.90;;;;;;5049640;28;20198;-55
2023/07/16 04:37:19;;;;;;;0.77;0.77;;;20.10;99.90;;;;;;5049724;28;20202;-55
2023/07/16 04:39:46;;;;;;;0.60;0.60;;;20.00;99.90;;;;;;5050842;28;20228;-55
2023/07/16 04:42:13;;;;;;;0.93;0.90;;;20.00;99.90;;;;;;5050520;28;20218;-55
2023/07/16 04:44:40;;;;;;;0.80;0.80;;;20.00;99.90;;;;;;5048515;28;20270;-56
2023/07/16 04:47:07;;;;;;;0.90;0.90;;;19.90;99.90;;;;;;5050025;28;20494;-55
2023/07/16 04:49:36;;;;;;;0.70;0.70;;;20.00;99.90;;;;;;5050616;28;20256;-55
2023/07/16 04:52:04;;;;;;;0.60;0.60;;;20.00;99.90;;;;;;5050423;28;20305;-57
2023/07/16 04:54:36;;;;;;;1.03;0.90;;;20.00;99.90;;;;;;5048026;28;20198;-56
2023/07/16 04:57:03;;;;;;;0.90;0.80;;;19.90;99.90;;;;;;5042980;28;20660;-54
2023/07/16 04:59:30;;;;;;;0.90;0.90;;;19.90;99.90;;;;;;5047890;28;20255;-55
2023/07/16 05:01:57;;;;;;;1.10;1.10;;;20.00;99.90;;;;;;5048933;28;20225;-55
2023/07/16 05:04:24;;;;;;;0.93;0.83;;;20.00;99.90;;;;;;5038384;28;20283;-54
2023/07/16 05:06:52;;;;;;;0.80;0.80;;;19.90;99.90;;;;;;5049129;28;20205;-55
2023/07/16 05:09:20;;;;;;;1.00;1.00;;;19.90;99.90;;;;;;5048281;28;20256;-55
2023/07/16 05:11:47;;;;;;;1.10;0.97;;;20.00;99.90;;;;;;5041809;28;20314;-56
2023/07/16 05:14:14;;;;;;;0.87;0.87;;;20.10;99.90;;;;;;5030484;28;20285;-54
2023/07/16 05:16:41;;;;;;;0.70;0.70;;;20.10;99.90;;;;;;5044974;28;20282;-56
2023/07/16 05:19:08;;;;;;;1.03;1.03;;;20.10;99.90;;;;;;5046780;28;20198;-55
2023/07/16 05:21:35;;;;;;;0.80;0.80;;;20.10;99.90;;;;;;5054087;28;20267;-55
2023/07/16 05:24:04;;;;;;;0.90;0.90;;;20.10;99.90;;;;;;5053817;28;20218;-55
2023/07/16 05:26:33;;;;;;;0.60;0.60;;;20.00;99.90;;;;;;5053769;28;20675;-54
2023/07/16 05:28:59;;;;;;;0.83;0.73;;;20.00;99.90;;;;;;5053448;28;20202;-56
2023/07/16 05:31:26;;;;;;;0.90;0.77;;;20.00;99.90;;;;;;5052285;28;20225;-54
2023/07/16 05:33:53;;;;;;;0.83;0.83;;;19.90;99.90;;;;;;5050759;28;20198;-56
2023/07/16 05:36:20;;;;;;;1.40;0.70;;;19.90;99.90;;;;;;5048269;28;20254;-55
2023/07/16 05:38:47;;;;;;;0.90;0.90;;;19.90;99.90;;;;;;5052754;28;20224;-55
2023/07/16 05:41:16;;;;;;;0.73;0.73;;;20.00;99.90;;;;;;5052973;28;20252;-55
2023/07/16 05:43:43;;;;;;;1.03;1.03;;;20.10;99.90;;;;;;5050638;28;20222;-55
2023/07/16 05:46:09;;;;;;;0.53;0.53;;;20.20;99.90;;;;;;5053705;28;20276;-54
2023/07/16 05:48:36;;;;;;;0.67;0.67;;;20.30;99.90;;;;;;5053601;28;20618;-55
2023/07/16 05:51:04;;;;;;;0.70;0.70;;;20.30;99.90;;;;;;5048020;28;20210;-55
2023/07/16 05:53:31;;;;;;;0.83;0.83;;;20.30;99.90;;;;;;5049583;28;20283;-54
2023/07/16 05:55:58;;;;;;;1.13;0.90;;;20.20;99.90;;;;;;5052644;28;20405;-57
2023/07/16 05:58:27;;;;;;;0.77;0.77;;;20.20;99.90;;;;;;5051608;28;20213;-55
2023/07/16 06:00:54;;;;;;;1.03;0.60;;;20.30;99.90;;;;;;5052627;28;20209;-55
2023/07/16 06:03:24;;;;;;;0.80;0.80;;;20.30;99.90;;;;;;5051831;28;20271;-54
2023/07/16 06:05:54;;;;;;;0.80;0.80;;;20.30;99.90;;;;;;5053270;28;20235;-56
2023/07/16 06:08:21;;;;;;;1.23;0.60;;;20.30;99.90;;;;;;5053010;28;20288;-56
2023/07/16 06:10:49;;;;;;;1.10;1.00;;;20.20;99.90;;;;;;5050077;28;20321;-55
2023/07/16 06:13:16;;;;;;;0.77;0.77;;;20.30;99.90;;;;;;5052742;28;20214;-55
2023/07/16 06:15:45;;;;;;;0.80;0.80;;;20.20;99.90;;;;;;5051667;28;20201;-56
2023/07/16 06:18:13;;;;;;;1.10;0.90;;;20.20;99.90;;;;;;5041878;28;20221;-55
2023/07/16 06:20:43;;;;;;;1.77;0.80;;;20.20;99.90;;;;;;5052879;28;20201;-54
2023/07/16 06:23:11;;;;;;;0.80;0.80;;;20.20;99.90;;;;;;5052759;28;20218;-54
2023/07/16 06:25:40;;;;;;;1.10;1.10;;;20.30;99.90;;;;;;5049958;28;20212;-55
2023/07/16 06:28:07;;;;;;;0.93;0.93;;;20.40;99.90;;;;;;5052073;28;20194;-55
2023/07/16 06:30:34;;;;;;;1.17;0.77;;;20.40;99.90;;;;;;5051806;28;20201;-54
2023/07/16 06:33:03;;;;;;;1.53;0.90;;;20.50;99.90;;;;;;5050493;28;20983;-55
2023/07/16 06:35:30;;;;;;;1.80;1.13;;;20.60;99.90;;;;;;5052682;28;20202;-54
2023/07/16 06:37:57;;;;;;;0.80;0.80;;;20.80;99.90;;;;;;5051962;28;20202;-54
2023/07/16 06:40:25;;;;;;;0.80;0.80;;;20.80;99.90;;;;;;5052831;28;20263;-55
2023/07/16 06:42:52;;;;;;;0.70;0.67;;;20.90;99.90;;;;;;5052142;28;20226;-55
2023/07/16 06:45:19;;;;;;;0.70;0.70;;;21.00;99.90;;;;;;5044207;28;20206;-54
2023/07/16 06:47:47;;;;;;;0.90;0.90;;;21.40;99.90;;;;;;5049115;28;20198;-54
2023/07/16 06:50:16;;;;;;;0.60;0.60;;;21.70;99.90;;;;;;5046833;28;20280;-55
2023/07/16 06:52:43;;;;;;;0.60;0.60;;;22.10;99.90;;;;;;5046853;28;20304;-55
2023/07/16 06:55:11;;;;;;;0.57;0.57;;;22.60;99.90;;;;;;5048274;28;20194;-54
2023/07/16 06:57:41;;;;;;;0.50;0.50;;;23.00;99.90;;;;;;5052176;28;20206;-56
2023/07/16 07:00:11;;;;;;;0.70;0.70;;;23.30;99.90;;;;;;5051776;28;20251;-56
2023/07/16 07:02:38;;;;;;;0.93;0.53;;;23.80;99.90;;;;;;5049950;28;20222;-55
2023/07/16 07:05:06;;;;;;;0.93;0.50;;;24.10;99.90;;;;;;5051876;28;20202;-54
2023/07/16 07:07:34;;;;;;;1.47;0.77;;;23.60;99.90;;;;;;5051483;28;20292;-54
2023/07/16 07:10:02;;;;;;;0.47;0.47;;;24.00;99.90;;;;;;5052061;28;20210;-54
2023/07/16 07:12:29;;;;;;;0.57;0.57;;;24.00;99.90;;;;;;5050408;28;20226;-54
2023/07/16 07:14:56;;;;;;;0.87;0.60;;;23.90;99.90;;;;;;5051874;28;20263;-55
2023/07/16 07:17:23;;;;;;;2.17;0.70;;;23.70;99.90;;;;;;5051944;28;20197;-54
2023/07/16 07:19:51;;;;;;;0.60;0.60;;;23.30;99.90;;;;;;5049261;28;20231;-55
2023/07/16 07:22:18;;;;;;;1.93;1.00;;;22.80;99.90;;;;;;5051658;28;20692;-54
2023/07/16 07:24:46;;;;;;;1.10;0.70;;;22.60;99.90;;;;;;5046785;28;20218;-54
2023/07/16 07:27:13;;;;;;;0.90;0.67;;;22.40;99.90;;;;;;5049147;28;20194;-54
2023/07/16 07:29:40;;;;;;;0.70;0.70;;;22.50;99.90;;;;;;5049239;28;20675;-54
2023/07/16 07:32:08;;;;;;;0.83;0.83;;;22.90;99.90;;;;;;5050998;28;20722;-55
2023/07/16 07:34:35;;;;;;;0.63;0.63;;;23.30;99.90;;;;;;5049478;28;20299;-54
2023/07/16 07:37:02;;;;;;;1.17;1.07;;;23.20;99.90;;;;;;5049469;28;20220;-56
2023/07/16 07:39:29;;;;;;;0.80;0.80;;;22.70;99.90;;;;;;5050304;28;20197;-54
2023/07/16 07:41:58;;;;;;;0.67;0.67;;;22.80;99.90;;;;;;5050620;28;20296;-54
2023/07/16 07:44:25;;;;;;;0.60;0.60;;;23.10;99.90;;;;;;5046241;28;20226;-56
2023/07/16 07:46:52;;;;;;;0.90;0.90;;;23.40;99.90;;;;;;5048128;28;20455;-56
2023/07/16 07:49:22;;;;;;;1.07;0.50;;;24.20;99.90;;;;;;5045843;28;20519;-64
2023/07/16 07:51:50;;;;;;;1.53;0.57;;;25.20;99.90;;;;;;5049153;28;20225;-64
2023/07/16 07:54:18;;;;;;;0.93;0.93;;;24.60;99.90;;;;;;5042974;28;20193;-66
2023/07/16 07:56:47;;;;;;;1.47;0.90;;;24.50;99.90;;;;;;5051631;28;20202;-65
2023/07/16 07:59:15;;;;;;;0.50;0.50;;;24.60;99.90;;;;;;5048266;28;20660;-65
2023/07/16 08:01:42;;;;;;;1.13;0.73;;;24.60;99.90;;;;;;5047723;28;20218;-65
2023/07/16 08:04:10;;;;;;;0.63;0.63;;;25.30;99.90;;;;;;5041331;28;20225;-69
2023/07/16 08:06:37;;;;;;;2.73;1.43;;;25.70;99.90;;;;;;5050492;28;20204;-70
2023/07/16 08:09:04;;;;;;;0.77;0.77;;;26.50;99.90;;;;;;5050922;28;20205;-69
2023/07/16 08:11:31;;;;;;;0.60;0.60;;;27.20;99.90;;;;;;5047851;28;20778;-70
2023/07/16 08:13:59;;;;;;;0.87;0.77;;;27.10;99.90;;;;;;5049074;28;20247;-70
2023/07/16 08:16:27;;;;;;;0.70;0.70;;;27.50;99.90;;;;;;5049106;28;20201;-72
2023/07/16 08:18:54;;;;;;;0.63;0.63;;;27.90;99.90;;;;;;5043213;28;20202;-65
2023/07/16 08:21:22;;;;;;;0.63;0.63;;;28.20;99.90;;;;;;5050735;28;20751;-71
2023/07/16 08:23:50;;;;;;;0.67;0.67;;;28.20;99.90;;;;;;5044049;28;20225;-71
2023/07/16 08:26:17;;;;;;;0.93;0.90;;;28.40;99.90;;;;;;5049140;28;20260;-70
2023/07/16 08:28:45;;;;;;;1.52;0.60;;;28.90;99.90;;;;;;5049567;28;20263;-70
2023/07/16 08:31:12;;;;;;;0.65;0.65;;;29.20;99.90;;;;;;5048720;28;20205;-72
2023/07/16 08:33:41;;;;;;;0.68;0.68;;;29.50;99.90;;;;;;5049491;28;20282;-68
2023/07/16 08:36:08;;;;;;;0.70;0.70;;;29.80;99.90;;;;;;5042616;28;20208;-69
2023/07/16 08:38:35;;;;;;;1.45;0.50;;;29.60;99.90;;;;;;5049330;28;20733;-72
2023/07/16 08:41:02;;;;;;;0.88;0.88;;;29.20;99.90;;;;;;5050488;28;20205;-71
2023/07/16 08:43:30;;;;;;;1.08;0.68;;;29.10;99.90;;;;;;5048827;28;20276;-75
2023/07/16 08:45:58;;;;;;;0.70;0.70;;;28.80;99.90;;;;;;5050617;28;20206;-77
2023/07/16 08:48:26;;;;;;;1.30;0.60;;;27.40;99.90;;;;;;5049502;28;20729;-71
2023/07/16 08:50:56;;;;;;;1.60;1.00;;;26.50;99.90;;;;;;5048843;28;20251;-70
2023/07/16 08:53:23;;;;;;;0.60;0.57;;;26.40;99.90;;;;;;5048063;28;20251;-71
2023/07/16 08:55:50;;;;;;;0.80;0.80;;;26.60;99.90;;;;;;5040310;28;20419;-76
2023/07/16 08:58:18;;;;;;;0.70;0.70;;;26.80;99.90;;;;;;5054717;28;20690;-76
2023/07/16 09:00:45;;;;;;;0.87;0.57;;;27.00;99.90;;;;;;5052951;28;20227;-69
2023/07/16 09:03:13;;;;;;;0.90;0.90;;;26.70;99.90;;;;;;5050338;28;20226;-56
2023/07/16 09:05:40;;;;;;;0.60;0.60;;;27.20;99.90;;;;;;5053388;28;20343;-66
2023/07/16 09:08:09;;;;;;;0.70;0.70;;;27.50;99.90;;;;;;5050988;28;20293;-68
2023/07/16 09:10:36;;;;;;;0.60;0.60;;;27.80;99.90;;;;;;5050292;28;20205;-70
2023/07/16 09:13:04;;;;;;;1.30;0.57;;;27.80;99.90;;;;;;5053762;28;20752;-74
2023/07/16 09:15:31;;;;;;;0.60;0.60;;;28.40;99.90;;;;;;5052393;28;20246;-69
2023/07/16 09:17:58;;;;;;;0.80;0.80;;;29.10;99.90;;;;;;5058039;28;20259;-65
2023/07/16 09:20:25;;;;;;;0.82;0.80;;;29.80;99.90;;;;;;5051530;28;20295;-64
2023/07/16 09:22:55;;;;;;;1.17;1.08;;;29.40;99.90;;;;;;5052446;28;20217;-66
2023/07/16 09:25:28;;;;;;;0.70;0.70;;;29.10;99.90;;;;;;5051015;28;20731;-67
2023/07/16 09:27:55;;;;;;;0.73;0.73;;;29.10;99.90;;;;;;5047110;28;20239;-70
2023/07/16 09:30:22;;;;;;;0.60;0.60;;;28.90;99.90;;;;;;5053561;28;20250;-63
2023/07/16 09:32:50;;;;;;;0.73;0.73;;;28.50;99.90;;;;;;5050930;28;20263;-65
2023/07/16 09:35:18;;;;;;;1.48;1.17;;;28.40;99.90;;;;;;5049659;28;20190;-68
2023/07/16 09:37:45;;;;;;;1.38;1.27;;;28.30;99.90;;;;;;5050787;28;20194;-63
2023/07/16 09:40:13;;;;;;;0.93;0.93;;;28.20;99.90;;;;;;5052392;28;20244;-66
2023/07/16 09:42:45;;;;;;;0.73;0.73;;;28.00;99.90;;;;;;5048706;28;20221;-65
2023/07/16 09:45:20;;;;;;;0.70;0.70;;;27.40;99.90;;;;;;5049056;28;20226;-65
2023/07/16 09:47:47;;;;;;;1.87;0.90;;;27.20;99.90;;;;;;5042455;28;20208;-68
2023/07/16 09:50:14;;;;;;;0.70;0.70;;;27.80;99.90;;;;;;5048792;28;20214;-66
2023/07/16 09:52:43;;;;;;;0.60;0.60;;;27.90;99.90;;;;;;5051854;28;20226;-68
2023/07/16 09:55:11;;;;;;;0.67;0.67;;;28.30;99.90;;;;;;5039567;28;20209;-68
2023/07/16 09:57:44;;;;;;;0.63;0.63;;;28.40;99.90;;;;;;5043309;28;20198;-73
2023/07/16 10:00:14;;;;;;;0.82;0.82;;;28.40;99.90;;;;;;5050040;28;20221;-70
2023/07/16 10:02:44;;;;;;;0.60;0.60;;;28.40;99.90;;;;;;5046532;28;20304;-69
2023/07/16 10:05:15;;;;;;;0.83;0.83;;;27.50;99.90;;;;;;5045130;28;20224;-67
2023/07/16 10:07:50;;;;;;;1.03;0.80;;;26.80;99.90;;;;;;5049997;28;20289;-71
2023/07/16 10:10:18;;;;;;;0.63;0.63;;;25.70;99.90;;;;;;5044389;28;20272;-68
2023/07/16 10:12:59;;;;;;;0.60;0.60;;;25.30;99.90;;;;;;5049352;28;20217;-71
2023/07/16 10:15:28;;;;;;;0.73;0.73;;;25.20;99.90;;;;;;5050851;28;20610;-63
2023/07/16 10:17:56;;;;;;;1.57;0.70;;;25.10;99.90;;;;;;5050834;28;20284;-69
2023/07/16 10:20:32;;;;;;;0.70;0.70;;;25.00;99.90;;;;;;5049236;28;20202;-73
2023/07/16 10:22:59;;;;;;;1.10;0.67;;;25.20;99.90;;;;;;5043691;28;20229;-66
2023/07/16 10:25:29;;;;;;;0.60;0.60;;;26.00;99.90;;;;;;5050884;28;20263;-66
2023/07/16 10:27:58;;;;;;;0.83;0.83;;;26.20;99.90;;;;;;5049360;28;20706;-69
2023/07/16 10:30:25;;;;;;;0.60;0.60;;;27.00;99.90;;;;;;5050152;28;20671;-56
2023/07/16 10:32:53;;;;;;;0.70;0.60;;;27.80;99.90;;;;;;5049121;28;20476;-56
2023/07/16 10:35:20;;;;;;;0.80;0.80;;;27.80;99.90;;;;;;5050268;28;20245;-57
2023/07/16 10:37:48;;;;;;;0.77;0.77;;;28.10;99.90;;;;;;5050839;28;20222;-56
2023/07/16 10:40:16;;;;;;;3.13;0.93;;;28.30;99.90;;;;;;5065684;22;20226;-53
2023/07/16 10:42:46;;;;;;;0.80;0.80;;;28.20;99.90;;;;;;5025745;28;20229;-53
2023/07/16 10:45:15;;;;;;;1.53;0.90;;;27.90;99.90;;;;;;5032307;28;20273;-52
2023/07/16 10:47:53;;;;;;;0.63;0.63;;;28.00;99.90;;;;;;5033806;28;20580;-53
2023/07/16 10:50:21;;;;;;;0.80;0.80;;;28.10;99.90;;;;;;5023022;28;20288;-59
2023/07/16 10:52:52;;;;;;;0.70;0.70;;;28.40;99.90;;;;;;5031601;28;20209;-59
2023/07/16 10:55:19;;;;;;;0.90;0.90;;;28.10;99.90;;;;;;5026331;28;20310;-61
2023/07/16 10:57:49;;;;;;;2.70;0.80;;;27.40;99.90;;;;;;5022811;28;20197;-60
2023/07/16 11:00:19;;;;;;;1.10;0.67;;;27.40;99.90;;;;;;5030279;28;20219;-59
2023/07/16 11:02:46;;;;;;;0.93;0.93;;;27.70;99.90;;;;;;5027275;28;20245;-60
2023/07/16 11:05:15;;;;;;;0.80;0.80;;;27.60;99.90;;;;;;5030128;28;20246;-57
2023/07/16 11:07:44;;;;;;;0.90;0.90;;;26.90;99.90;;;;;;5029995;28;20206;-60
2023/07/16 11:10:11;;;;;;;1.20;0.80;;;26.40;99.90;;;;;;5030497;28;20664;-60
2023/07/16 11:12:39;;;;;;;0.83;0.83;;;26.30;99.90;;;;;;5029728;28;20249;-60
2023/07/16 11:15:07;;;;;;;1.20;1.20;;;25.90;99.90;;;;;;5031271;28;20199;-59
2023/07/16 11:17:41;;;;;;;1.70;1.30;;;25.60;99.90;;;;;;5032367;28;20202;-59
2023/07/16 11:20:11;;;;;;;1.10;1.10;;;25.20;99.90;;;;;;5032246;28;20642;-65
2023/07/16 11:22:40;;;;;;;0.90;0.90;;;25.00;99.90;;;;;;5027281;28;20580;-61
2023/07/16 11:25:12;;;;;;;1.57;1.47;;;25.00;99.90;;;;;;5026752;28;20226;-62
2023/07/16 11:27:44;;;;;;;2.30;1.20;;;25.10;99.90;;;;;;5029226;28;20209;-61
2023/07/16 11:30:12;;;;;;;1.60;1.00;;;25.10;99.90;;;;;;5031076;28;20763;-62
2023/07/16 11:32:47;;;;;;;0.90;0.90;;;25.00;99.90;;;;;;5030869;28;20237;-57
2023/07/16 11:35:17;;;;;;;0.80;0.80;;;24.90;99.90;;;;;;5024610;28;20217;-62
2023/07/16 11:37:45;;;;;;;2.17;1.00;;;24.80;99.90;;;;;;5029684;28;20230;-63
2023/07/16 11:40:16;;;;;;;0.93;0.93;;;24.50;99.90;;;;;;5030312;28;20269;-64
2023/07/16 11:42:48;;;;;;;1.43;1.30;;;24.40;99.90;;;;;;5026321;28;20253;-60
2023/07/16 11:45:20;;;;;;;2.07;0.90;;;24.30;99.90;;;;;;5030189;28;20577;-60
2023/07/16 11:47:49;;;;;;;1.17;1.17;;;24.60;99.90;;;;;;5031070;28;20228;-60
2023/07/16 11:50:16;;;;;;;0.97;0.97;;;24.60;99.90;;;;;;5031378;28;20230;-61
2023/07/16 11:52:43;;;;;;;2.20;1.00;;;24.40;99.90;;;;;;5030712;28;20202;-62
2023/07/16 11:55:11;;;;;;;1.30;1.20;;;24.60;99.90;;;;;;5031642;28;20664;-51
2023/07/16 11:57:41;;;;;;;2.13;1.10;;;24.50;99.90;;;;;;5030303;28;20297;-51
2023/07/16 12:00:09;;;;;;;1.20;1.10;;;24.80;99.90;;;;;;5024480;28;20230;-52
2023/07/16 12:02:36;;;;;;;0.90;0.90;;;25.00;99.90;;;;;;5024531;28;20328;-51
2023/07/16 12:05:05;;;;;;;1.40;1.10;;;25.00;99.90;;;;;;5029317;28;20695;-52
2023/07/16 12:07:33;;;;;;;2.20;1.03;;;24.90;99.90;;;;;;5029544;28;20268;-52
2023/07/16 12:10:01;;;;;;;1.27;0.80;;;25.00;99.90;;;;;;5029622;28;20218;-51
2023/07/16 12:12:28;;;;;;;2.70;1.13;;;25.20;99.90;;;;;;5029397;28;20203;-51
2023/07/16 12:14:55;;;;;;;1.27;1.10;;;25.10;99.90;;;;;;5027332;28;20568;-51
2023/07/16 12:17:22;;;;;;;3.60;1.00;;;25.10;99.90;;;;;;5030380;28;20261;-52
2023/07/16 12:19:49;;;;;;;3.07;1.13;;;25.00;99.90;;;;;;5031375;28;20272;-52
2023/07/16 12:22:19;;;;;;;3.20;1.43;;;25.20;99.90;;;;;;5031311;28;20206;-52
2023/07/16 12:24:47;;;;;;;1.13;1.00;;;25.40;99.90;;;;;;5027240;28;20210;-52
2023/07/16 12:27:15;;;;;;;0.83;0.83;;;25.40;99.90;;;;;;5031537;28;20252;-51
2023/07/16 12:29:42;;;;;;;1.10;1.10;;;25.30;99.90;;;;;;5034152;28;20218;-51
2023/07/16 12:32:09;;;;;;;1.20;1.20;;;25.10;99.90;;;;;;5030649;28;20259;-52
2023/07/16 12:34:36;;;;;;;2.67;1.17;;;25.30;99.90;;;;;;5034470;28;20244;-52
2023/07/16 12:37:03;;;;;;;3.10;2.33;;;25.40;99.90;;;;;;5033379;28;20660;-52
2023/07/16 12:39:32;;;;;;;2.07;1.10;;;25.10;99.90;;;;;;5033409;28;20781;-51
2023/07/16 12:41:59;;;;;;;1.70;1.40;;;25.10;99.90;;;;;;5034488;28;20272;-51
2023/07/16 12:44:26;;;;;;;0.70;0.70;;;25.10;99.90;;;;;;5035030;28;20220;-51
2023/07/16 12:46:53;;;;;;;0.97;0.97;;;25.10;99.90;;;;;;5033428;28;20228;-51
2023/07/16 12:49:20;;;;;;;1.33;1.20;;;25.00;99.90;;;;;;5032460;28;20229;-50
2023/07/16 12:51:47;;;;;;;1.67;0.90;;;25.20;99.90;;;;;;5033720;28;20252;-67
2023/07/16 12:54:14;;;;;;;1.00;1.00;;;25.60;99.90;;;;;;5030346;28;20830;-58